sensor_id;sensor_type;location;lat;lon;timestamp;pressure;altitude;pressure_sealevel;temperature;humidity
26178;BME280;13924;47.670;10.310;2023-07-29T00:00:42;93770;;;16.5;100.0
26178;BME280;13924;47.670;10.310;2023-07-29T00:15:42;93740;;;16.6;100.0
26178;BME280;13924;47.670;10.310;2023-07-29T00:30:42;93790;;;16.3;100.0
26178;BME280;13924;47.670;10.310;2023-07-29T00:45:44;93760;;;16.3;100.0
26178;BME280;13924;47.670;10.310;2023-07-29T01:00:44;93750;;;16.3;100.0
26178;BME280;13924;47.670;10.310;2023-07-29T01:01:26;93740;;;16.3;100.0
26178;BME280;13924;47.670;10.310;2023-07-29T01:15:52;93700;;;16.6;100.0
26178;BME280;13924;47.670;10.310;2023-07-29T01:30:45;93840;;;16.4;100.0
26178;BME280;13924;47.670;10.310;2023-07-29T01:45:46;93840;;;16.4;100.0
26178;BME280;13924;47.670;10.310;2023-07-29T02:00:46;93890;;;16.0;100.0
26178;BME280;13924;47.670;10.310;2023-07-29T02:15:47;93890;;;16.1;100.0
26178;BME280;13924;47.670;10.310;2023-07-29T02:31:09;93890;;;15.9;100.0
26178;BME280;13924;47.670;10.310;2023-07-29T02:45:48;93880;;;15.8;100.0
26178;BME280;13924;47.670;10.310;2023-07-29T03:00:48;93870;;;15.9;100.0
26178;BME280;13924;47.670;10.310;2023-07-29T03:15:50;93850;;;15.7;100.0
26178;BME280;13924;47.670;10.310;2023-07-29T03:30:51;93850;;;15.5;100.0
26178;BME280;13924;47.670;10.310;2023-07-29T03:45:51;93860;;;15.8;100.0
26178;BME280;13924;47.670;10.310;2023-07-29T03:48:49;93850;;;15.8;100.0
26178;BME280;13924;47.670;10.310;2023-07-29T04:03:49;93830;;;15.8;100.0
26178;BME280;13924;47.670;10.310;2023-07-29T04:18:50;93850;;;15.8;100.0
26178;BME280;13924;47.670;10.310;2023-07-29T04:33:51;93840;;;15.9;100.0
26178;BME280;13924;47.670;10.310;2023-07-29T04:48:51;93840;;;15.8;100.0
26178;BME280;13924;47.670;10.310;2023-07-29T05:03:52;93840;;;15.7;100.0
26178;BME280;13924;47.670;10.310;2023-07-29T05:18:52;93870;;;16.0;100.0
26178;BME280;13924;47.670;10.310;2023-07-29T05:33:53;93890;;;16.2;100.0
26178;BME280;13924;47.670;10.310;2023-07-29T05:48:54;93900;;;16.4;100.0
26178;BME280;13924;47.670;10.310;2023-07-29T06:03:55;93920;;;16.7;100.0
26178;BME280;13924;47.670;10.310;2023-07-29T06:18:55;93880;;;16.8;100.0
26178;BME280;13924;47.670;10.310;2023-07-29T06:33:56;93860;;;17.0;100.0
26178;BME280;13924;47.670;10.310;2023-07-29T06:48:57;93880;;;17.2;100.0
26178;BME280;13924;47.670;10.310;2023-07-29T07:03:57;93820;;;18.0;100.0
26178;BME280;13924;47.670;10.310;2023-07-29T07:18:58;93780;;;17.9;100.0
26178;BME280;13924;47.670;10.310;2023-07-29T07:33:59;93770;;;17.8;100.0
26178;BME280;13924;47.670;10.310;2023-07-29T07:49:00;93730;;;18.0;100.0
26178;BME280;13924;47.670;10.310;2023-07-29T08:04:00;93660;;;18.7;100.0
26178;BME280;13924;47.670;10.310;2023-07-29T08:19:02;93450;;;18.7;100.0
26178;BME280;13924;47.670;10.310;2023-07-29T08:34:01;93290;;;19.3;100.0
26178;BME280;13924;47.670;10.310;2023-07-29T08:49:02;93180;;;19.9;100.0
26178;BME280;13924;47.670;10.310;2023-07-29T09:04:04;93150;;;21.0;100.0
26178;BME280;13924;47.670;10.310;2023-07-29T09:19:03;93150;;;21.2;100.0
26178;BME280;13924;47.670;10.310;2023-07-29T09:34:04;93160;;;21.6;100.0
26178;BME280;13924;47.670;10.310;2023-07-29T09:49:06;93060;;;22.1;100.0
26178;BME280;13924;47.670;10.310;2023-07-29T10:04:09;93060;;;22.1;100.0
26178;BME280;13924;47.670;10.310;2023-07-29T10:19:08;93050;;;22.4;100.0
26178;BME280;13924;47.670;10.310;2023-07-29T10:34:07;93030;;;22.5;100.0
26178;BME280;13924;47.670;10.310;2023-07-29T10:49:07;93030;;;22.7;100.0
26178;BME280;13924;47.670;10.310;2023-07-29T11:04:25;93020;;;23.2;100.0
26178;BME280;13924;47.670;10.310;2023-07-29T11:19:16;93000;;;23.6;100.0
26178;BME280;13924;47.670;10.310;2023-07-29T11:34:11;92990;;;23.7;100.0
26178;BME280;13924;47.670;10.310;2023-07-29T11:49:10;92970;;;24.4;100.0
26178;BME280;13924;47.670;10.310;2023-07-29T12:04:13;92960;;;24.9;100.0
26178;BME280;13924;47.670;10.310;2023-07-29T12:19:12;92940;;;25.0;100.0
26178;BME280;13924;47.670;10.310;2023-07-29T12:34:18;92940;;;24.9;100.0
26178;BME280;13924;47.670;10.310;2023-07-29T12:49:12;92950;;;24.1;100.0
26178;BME280;13924;47.670;10.310;2023-07-29T13:04:14;93000;;;23.6;100.0
26178;BME280;13924;47.670;10.310;2023-07-29T13:19:18;93000;;;23.6;100.0
26178;BME280;13924;47.670;10.310;2023-07-29T13:34:17;92980;;;23.1;100.0
26178;BME280;13924;47.670;10.310;2023-07-29T13:49:17;93020;;;22.6;100.0
26178;BME280;13924;47.670;10.310;2023-07-29T14:04:15;93180;;;21.8;100.0
26178;BME280;13924;47.670;10.310;2023-07-29T14:19:18;93130;;;21.0;100.0
26178;BME280;13924;47.670;10.310;2023-07-29T14:34:19;93130;;;21.0;100.0
26178;BME280;13924;47.670;10.310;2023-07-29T14:49:17;93160;;;19.3;100.0
26178;BME280;13924;47.670;10.310;2023-07-29T15:04:18;93450;;;18.2;100.0
26178;BME280;13924;47.670;10.310;2023-07-29T15:19:19;93840;;;17.6;100.0
26178;BME280;13924;47.670;10.310;2023-07-29T15:34:19;93660;;;17.8;100.0
26178;BME280;13924;47.670;10.310;2023-07-29T15:49:23;93660;;;17.8;100.0
26178;BME280;13924;47.670;10.310;2023-07-29T16:04:20;93630;;;17.6;100.0
26178;BME280;13924;47.670;10.310;2023-07-29T16:19:24;93700;;;17.5;100.0
26178;BME280;13924;47.670;10.310;2023-07-29T16:34:22;93620;;;17.5;100.0
26178;BME280;13924;47.670;10.310;2023-07-29T16:49:23;93650;;;17.5;100.0
26178;BME280;13924;47.670;10.310;2023-07-29T17:04:23;93600;;;17.5;100.0
26178;BME280;13924;47.670;10.310;2023-07-29T17:19:24;93530;;;17.6;100.0
26178;BME280;13924;47.670;10.310;2023-07-29T17:34:26;93590;;;17.6;100.0
26178;BME280;13924;47.670;10.310;2023-07-29T17:49:26;93630;;;17.4;100.0
26178;BME280;13924;47.670;10.310;2023-07-29T18:04:27;93630;;;17.7;100.0
26178;BME280;13924;47.670;10.310;2023-07-29T18:19:28;93740;;;17.5;100.0
26178;BME280;13924;47.670;10.310;2023-07-29T18:34:28;93740;;;17.3;100.0
26178;BME280;13924;47.670;10.310;2023-07-29T18:49:28;93780;;;17.3;100.0
26178;BME280;13924;47.670;10.310;2023-07-29T19:04:30;93810;;;17.3;100.0
26178;BME280;13924;47.670;10.310;2023-07-29T19:19:29;93820;;;17.2;100.0
26178;BME280;13924;47.670;10.310;2023-07-29T19:34:32;93820;;;17.2;100.0
26178;BME280;13924;47.670;10.310;2023-07-29T19:49:31;93720;;;17.3;100.0
26178;BME280;13924;47.670;10.310;2023-07-29T20:04:36;93740;;;17.2;100.0
26178;BME280;13924;47.670;10.310;2023-07-29T20:19:33;93820;;;17.0;100.0
26178;BME280;13924;47.670;10.310;2023-07-29T20:34:36;93820;;;17.0;100.0
26178;BME280;13924;47.670;10.310;2023-07-29T20:49:34;93850;;;17.0;100.0
26178;BME280;13924;47.670;10.310;2023-07-29T21:04:34;93820;;;17.0;100.0
26178;BME280;13924;47.670;10.310;2023-07-29T21:19:34;93810;;;17.0;100.0
26178;BME280;13924;47.670;10.310;2023-07-29T21:34:35;93800;;;17.0;100.0
26178;BME280;13924;47.670;10.310;2023-07-29T21:49:36;93780;;;17.1;100.0
26178;BME280;13924;47.670;10.310;2023-07-29T22:00:34;93750;;;17.0;100.0
26178;BME280;13924;47.670;10.310;2023-07-29T22:15:34;93780;;;17.0;100.0
26178;BME280;13924;47.670;10.310;2023-07-29T22:30:35;93790;;;17.1;100.0
26178;BME280;13924;47.670;10.310;2023-07-29T22:45:35;93750;;;17.0;100.0
26178;BME280;13924;47.670;10.310;2023-07-29T23:00:36;93770;;;16.9;100.0
26178;BME280;13924;47.670;10.310;2023-07-29T23:15:36;93800;;;16.9;100.0
26178;BME280;13924;47.670;10.310;2023-07-29T23:30:37;93570;;;17.2;100.0
26178;BME280;13924;47.670;10.310;2023-07-29T23:45:37;93680;;;17.0;100.0
